createdAt,value
2018-08-25T00:01:45.239Z,17.60
2018-08-25T00:04:13.449Z,17.60
2018-08-25T00:06:41.681Z,17.60
2018-08-25T00:09:10.964Z,17.60
2018-08-25T00:11:39.374Z,17.70
2018-08-25T00:14:07.623Z,17.60
2018-08-25T00:16:36.035Z,17.60
2018-08-25T00:19:04.225Z,17.60
2018-08-25T00:21:32.398Z,17.50
2018-08-25T00:24:00.576Z,17.50
2018-08-25T00:26:28.768Z,17.50
2018-08-25T00:28:56.927Z,17.50
2018-08-25T00:31:25.497Z,17.40
2018-08-25T00:33:54.992Z,17.50
2018-08-25T00:36:23.732Z,17.50
2018-08-25T00:38:58.651Z,17.50
2018-08-25T00:41:26.882Z,17.50
2018-08-25T00:43:55.047Z,17.50
2018-08-25T00:46:23.216Z,17.40
2018-08-25T00:48:51.361Z,17.50
2018-08-25T00:51:19.503Z,17.30
2018-08-25T00:53:47.776Z,17.30
2018-08-25T00:56:15.950Z,17.30
2018-08-25T00:58:44.160Z,17.20
2018-08-25T01:01:12.333Z,17.20
2018-08-25T01:03:40.720Z,17.20
2018-08-25T01:06:08.883Z,17.20
2018-08-25T01:08:37.084Z,17.20
2018-08-25T01:11:05.748Z,17.20
2018-08-25T01:13:35.076Z,17.10
2018-08-25T01:16:03.354Z,17.10
2018-08-25T01:18:31.591Z,17.10
2018-08-25T01:20:59.803Z,17.00
2018-08-25T01:23:28.035Z,16.90
2018-08-25T01:25:56.207Z,16.90
2018-08-25T01:28:24.373Z,16.90
2018-08-25T01:30:53.265Z,16.90
2018-08-25T01:33:21.404Z,16.90
2018-08-25T01:35:49.635Z,16.90
2018-08-25T01:38:17.832Z,16.80
2018-08-25T01:40:46.028Z,16.80
2018-08-25T01:43:14.195Z,16.80
2018-08-25T01:45:42.331Z,16.80
2018-08-25T01:48:10.504Z,16.80
2018-08-25T01:50:38.687Z,16.90
2018-08-25T01:53:06.825Z,16.80
2018-08-25T01:55:36.128Z,16.80
2018-08-25T01:58:05.117Z,16.80
2018-08-25T02:00:33.397Z,16.80
2018-08-25T02:03:01.575Z,16.80
2018-08-25T02:05:30.528Z,16.80
2018-08-25T02:08:00.867Z,16.80
2018-08-25T02:10:29.055Z,16.80
2018-08-25T02:12:57.248Z,16.70
2018-08-25T02:15:25.621Z,16.70
2018-08-25T02:17:53.895Z,16.60
2018-08-25T02:20:22.140Z,16.50
2018-08-25T02:22:50.333Z,16.50
2018-08-25T02:25:18.525Z,16.50
2018-08-25T02:27:46.696Z,16.50
2018-08-25T02:30:14.862Z,16.40
2018-08-25T02:32:43.057Z,16.40
2018-08-25T02:35:11.218Z,16.30
2018-08-25T02:37:39.426Z,16.30
2018-08-25T02:40:07.568Z,16.30
2018-08-25T02:42:35.788Z,16.20
2018-08-25T02:45:05.383Z,16.20
2018-08-25T02:47:34.324Z,16.20
2018-08-25T02:50:02.498Z,16.20
2018-08-25T02:52:31.186Z,16.00
2018-08-25T02:55:00.257Z,16.00
2018-08-25T02:57:28.380Z,16.00
2018-08-25T02:59:56.585Z,15.90
2018-08-25T03:02:24.751Z,15.80
2018-08-25T03:04:52.921Z,15.80
2018-08-25T03:07:21.073Z,15.80
2018-08-25T03:12:17.527Z,15.70
2018-08-25T03:14:45.704Z,15.70
2018-08-25T03:17:13.980Z,15.70
2018-08-25T03:19:42.166Z,15.70
2018-08-25T03:22:10.353Z,15.70
2018-08-25T03:24:38.608Z,15.70
2018-08-25T03:27:06.880Z,15.70
2018-08-25T03:29:35.055Z,15.70
2018-08-25T03:32:03.381Z,15.60
2018-08-25T03:34:31.596Z,15.60
2018-08-25T03:36:59.796Z,15.70
2018-08-25T03:39:28.003Z,15.70
2018-08-25T03:41:56.227Z,15.60
2018-08-25T03:44:24.420Z,15.60
2018-08-25T03:46:52.642Z,15.60
2018-08-25T03:49:20.847Z,15.50
2018-08-25T03:51:49.004Z,15.50
2018-08-25T03:54:17.167Z,15.40
2018-08-25T03:56:45.477Z,15.40
2018-08-25T03:59:13.659Z,15.50
2018-08-25T04:01:41.954Z,15.50
2018-08-25T04:04:10.025Z,15.50
2018-08-25T04:06:38.191Z,15.50
2018-08-25T04:09:11.671Z,15.40
2018-08-25T04:11:39.867Z,15.40
2018-08-25T04:14:09.067Z,15.30
2018-08-25T04:16:37.284Z,15.30
2018-08-25T04:19:05.701Z,15.30
2018-08-25T04:21:33.880Z,15.20
2018-08-25T04:24:02.081Z,15.20
2018-08-25T04:26:30.293Z,15.20
2018-08-25T04:28:58.547Z,15.30
2018-08-25T04:31:26.707Z,15.30
2018-08-25T04:33:54.923Z,15.30
2018-08-25T04:36:23.126Z,15.30
2018-08-25T04:38:51.303Z,15.30
2018-08-25T04:41:19.531Z,15.30
2018-08-25T04:43:47.650Z,15.30
2018-08-25T04:46:15.851Z,15.30
2018-08-25T04:48:44.022Z,15.30
2018-08-25T04:51:12.183Z,15.30
2018-08-25T04:53:40.413Z,15.30
2018-08-25T04:56:08.641Z,15.30
2018-08-25T04:58:36.824Z,15.40
2018-08-25T05:01:05.147Z,15.30
2018-08-25T05:03:33.324Z,15.30
2018-08-25T05:06:01.493Z,15.40
2018-08-25T05:08:29.743Z,15.40
2018-08-25T05:10:57.918Z,15.40
2018-08-25T05:13:26.085Z,15.40
2018-08-25T05:15:54.384Z,15.40
2018-08-25T05:20:50.565Z,15.30
2018-08-25T05:23:18.755Z,15.40
2018-08-25T05:25:47.000Z,15.30
2018-08-25T05:28:15.194Z,15.30
2018-08-25T05:30:43.490Z,15.30
2018-08-25T05:33:11.679Z,15.30
2018-08-25T05:35:40.056Z,15.30
2018-08-25T05:38:08.255Z,15.30
2018-08-25T05:40:36.454Z,15.30
2018-08-25T05:43:04.646Z,15.30
2018-08-25T05:45:32.841Z,15.30
2018-08-25T05:48:01.049Z,15.30
2018-08-25T05:50:29.215Z,15.30
2018-08-25T05:52:57.485Z,15.30
2018-08-25T05:55:25.738Z,15.30
2018-08-25T05:57:53.950Z,15.30
2018-08-25T06:00:22.178Z,15.40
2018-08-25T06:02:50.354Z,15.40
2018-08-25T06:05:18.548Z,15.40
2018-08-25T06:07:46.876Z,15.30
2018-08-25T06:10:15.039Z,15.20
2018-08-25T06:12:43.466Z,15.20
2018-08-25T06:15:11.716Z,15.20
2018-08-25T06:17:40.029Z,15.10
2018-08-25T06:20:08.452Z,15.10
2018-08-25T06:22:36.703Z,15.20
2018-08-25T06:25:06.180Z,15.20
2018-08-25T06:27:34.542Z,15.10
2018-08-25T06:30:03.340Z,15.10
2018-08-25T06:32:31.689Z,15.00
2018-08-25T06:35:00.376Z,15.00
2018-08-25T06:37:28.943Z,15.00
2018-08-25T06:39:57.262Z,14.90
2018-08-25T06:42:25.607Z,14.90
2018-08-25T06:44:53.909Z,14.90
2018-08-25T06:47:22.205Z,14.60
2018-08-25T06:49:50.627Z,14.50
2018-08-25T06:52:19.007Z,14.30
2018-08-25T06:54:47.299Z,14.30
2018-08-25T06:57:15.778Z,14.30
2018-08-25T06:59:44.398Z,14.10
2018-08-25T07:02:12.749Z,14.10
2018-08-25T07:04:41.194Z,14.20
2018-08-25T07:07:09.546Z,14.60
2018-08-25T07:09:37.945Z,14.60
2018-08-25T07:12:05.921Z,14.50
2018-08-25T07:14:34.279Z,14.50
2018-08-25T07:17:02.667Z,14.50
2018-08-25T07:19:32.037Z,14.60
2018-08-25T07:22:00.386Z,14.50
2018-08-25T07:24:28.657Z,14.50
2018-08-25T07:29:25.066Z,14.50
2018-08-25T07:31:53.375Z,14.50
2018-08-25T07:34:21.522Z,14.40
2018-08-25T07:36:50.655Z,14.40
2018-08-25T07:39:19.109Z,14.40
2018-08-25T07:41:47.492Z,14.60
2018-08-25T07:44:15.967Z,14.70
2018-08-25T07:46:44.357Z,14.80
2018-08-25T07:49:12.761Z,14.80
2018-08-25T07:51:41.057Z,14.90
2018-08-25T07:54:09.545Z,14.80
2018-08-25T07:56:37.905Z,14.70
2018-08-25T07:59:06.944Z,15.00
2018-08-25T08:01:35.182Z,15.10
2018-08-25T08:04:03.541Z,15.10
2018-08-25T08:06:32.243Z,14.90
2018-08-25T08:09:01.589Z,14.90
2018-08-25T08:11:30.141Z,15.10
2018-08-25T08:13:58.578Z,15.10
2018-08-25T08:16:26.992Z,15.10
2018-08-25T08:18:55.414Z,15.30
2018-08-25T08:21:23.908Z,15.10
2018-08-25T08:23:52.289Z,15.10
2018-08-25T08:26:20.662Z,15.20
2018-08-25T08:28:49.090Z,15.50
2018-08-25T08:31:17.352Z,15.40
2018-08-25T08:33:45.572Z,15.60
2018-08-25T08:36:13.771Z,15.90
2018-08-25T08:38:42.008Z,15.80
2018-08-25T08:41:10.354Z,15.60
2018-08-25T08:43:38.528Z,15.70
2018-08-25T08:46:07.213Z,15.70
2018-08-25T08:48:35.381Z,15.50
2018-08-25T08:51:04.253Z,15.20
2018-08-25T08:53:32.433Z,15.50
2018-08-25T08:56:00.974Z,15.50
2018-08-25T08:58:29.574Z,15.60
2018-08-25T09:03:25.681Z,15.20
2018-08-25T09:05:54.178Z,15.20
2018-08-25T09:08:23.787Z,15.20
2018-08-25T09:10:53.044Z,15.30
2018-08-25T09:13:21.279Z,15.10
2018-08-25T09:15:49.523Z,15.30
2018-08-25T09:18:17.898Z,15.30
2018-08-25T09:20:46.433Z,15.60
2018-08-25T09:23:14.659Z,15.40
2018-08-25T09:25:42.928Z,15.20
2018-08-25T09:28:11.368Z,15.20
2018-08-25T09:30:39.616Z,15.20
2018-08-25T09:33:08.172Z,15.00
2018-08-25T09:38:04.494Z,15.10
2018-08-25T09:40:32.781Z,15.20
2018-08-25T09:43:01.115Z,15.20
2018-08-25T09:45:29.447Z,15.40
2018-08-25T09:47:57.594Z,15.40
2018-08-25T09:50:25.760Z,15.40
2018-08-25T09:52:53.965Z,15.50
2018-08-25T09:55:22.306Z,15.50
2018-08-25T09:57:50.453Z,15.60
2018-08-25T10:00:18.600Z,15.70
2018-08-25T10:02:46.755Z,15.70
2018-08-25T10:05:14.929Z,15.60
2018-08-25T10:07:43.064Z,15.70
2018-08-25T10:10:11.224Z,15.80
2018-08-25T10:12:39.409Z,16.10
2018-08-25T10:15:07.551Z,16.10
2018-08-25T10:17:35.857Z,16.10
2018-08-25T10:20:04.000Z,15.80
2018-08-25T10:22:32.193Z,15.80
2018-08-25T10:25:00.353Z,15.80
2018-08-25T10:27:28.514Z,15.90
2018-08-25T10:29:56.678Z,16.20
2018-08-25T10:32:25.082Z,16.50
2018-08-25T10:37:21.327Z,16.80
2018-08-25T10:39:49.584Z,16.80
2018-08-25T10:42:17.867Z,17.40
2018-08-25T10:44:46.122Z,17.60
2018-08-25T10:47:14.468Z,17.80
2018-08-25T10:49:42.659Z,17.80
2018-08-25T10:52:10.946Z,18.10
2018-08-25T10:54:40.017Z,18.20
2018-08-25T10:57:08.393Z,17.90
2018-08-25T10:59:36.594Z,17.70
2018-08-25T11:02:05.075Z,17.40
2018-08-25T11:04:35.074Z,17.40
2018-08-25T11:07:03.447Z,17.40
2018-08-25T11:09:31.939Z,17.40
2018-08-25T11:12:00.402Z,17.20
2018-08-25T11:14:28.562Z,17.20
2018-08-25T11:16:56.716Z,17.20
2018-08-25T11:19:24.922Z,17.10
2018-08-25T11:21:54.182Z,17.30
2018-08-25T11:24:22.959Z,17.30
2018-08-25T11:26:51.093Z,17.60
2018-08-25T11:29:19.280Z,17.60
2018-08-25T11:31:47.453Z,17.60
2018-08-25T11:34:15.595Z,17.90
2018-08-25T11:39:12.142Z,18.00
2018-08-25T11:41:40.730Z,17.90
2018-08-25T11:44:09.029Z,17.80
2018-08-25T11:46:37.056Z,17.80
2018-08-25T11:49:05.249Z,17.70
2018-08-25T11:51:33.397Z,17.70
2018-08-25T11:54:01.578Z,18.00
2018-08-25T11:56:29.703Z,18.20
2018-08-25T11:58:57.845Z,18.30
2018-08-25T12:01:26.084Z,18.30
2018-08-25T12:03:54.234Z,18.20
2018-08-25T12:06:22.707Z,18.20
2018-08-25T12:08:50.923Z,18.20
2018-08-25T12:11:19.064Z,18.60
2018-08-25T12:13:47.232Z,18.60
2018-08-25T12:16:15.379Z,18.50
2018-08-25T12:18:43.483Z,18.60
2018-08-25T12:21:11.719Z,18.60
2018-08-25T12:23:39.927Z,18.60
2018-08-25T12:26:08.142Z,18.00
2018-08-25T12:28:36.367Z,18.10
2018-08-25T12:31:04.637Z,18.40
2018-08-25T12:33:32.848Z,18.60
2018-08-25T12:36:00.918Z,18.70
2018-08-25T12:38:29.084Z,18.70
2018-08-25T12:40:57.233Z,19.00
2018-08-25T12:43:25.377Z,18.90
2018-08-25T12:45:53.526Z,18.70
2018-08-25T12:48:21.723Z,18.70
2018-08-25T12:50:49.940Z,18.60
2018-08-25T12:53:18.132Z,18.60
2018-08-25T12:55:46.293Z,18.60
2018-08-25T12:58:14.612Z,18.60
2018-08-25T13:00:42.744Z,18.50
2018-08-25T13:03:11.019Z,18.60
2018-08-25T13:05:39.172Z,18.60
2018-08-25T13:08:07.320Z,18.50
2018-08-25T13:10:35.478Z,18.50
2018-08-25T13:13:03.653Z,18.40
2018-08-25T13:15:31.976Z,18.40
2018-08-25T13:18:00.192Z,18.30
2018-08-25T13:20:28.605Z,18.30
2018-08-25T13:22:56.850Z,18.40
2018-08-25T13:25:25.075Z,18.50
2018-08-25T13:27:53.264Z,18.50
2018-08-25T13:30:21.472Z,18.50
2018-08-25T13:32:49.686Z,18.60
2018-08-25T13:37:45.846Z,18.60
2018-08-25T13:40:14.076Z,18.60
2018-08-25T13:42:42.259Z,19.00
2018-08-25T13:45:10.637Z,18.70
2018-08-25T13:47:38.784Z,18.70
2018-08-25T13:50:07.051Z,18.60
2018-08-25T13:52:35.292Z,18.90
2018-08-25T13:55:03.481Z,19.00
2018-08-25T13:57:31.609Z,19.10
2018-08-25T13:59:59.824Z,19.30
2018-08-25T14:02:27.963Z,19.20
2018-08-25T14:04:56.280Z,19.20
2018-08-25T14:07:24.529Z,19.20
2018-08-25T14:09:52.700Z,19.10
2018-08-25T14:12:20.860Z,18.80
2018-08-25T14:14:49.040Z,18.80
2018-08-25T14:17:17.197Z,18.70
2018-08-25T14:19:45.392Z,18.80
2018-08-25T14:22:13.528Z,19.00
2018-08-25T14:24:41.671Z,19.80
2018-08-25T14:27:10.075Z,20.10
2018-08-25T14:29:38.362Z,20.10
2018-08-25T14:32:06.543Z,19.70
2018-08-25T14:34:34.804Z,19.70
2018-08-25T14:37:02.951Z,19.50
2018-08-25T14:39:31.189Z,19.50
2018-08-25T14:41:59.536Z,19.60
2018-08-25T14:44:27.799Z,19.50
2018-08-25T14:46:56.058Z,19.20
2018-08-25T14:49:24.353Z,19.10
2018-08-25T14:51:52.620Z,19.10
2018-08-25T14:54:20.867Z,19.10
2018-08-25T14:56:49.008Z,19.10
2018-08-25T14:59:17.241Z,19.10
2018-08-25T15:01:45.401Z,19.10
2018-08-25T15:04:13.677Z,19.10
2018-08-25T15:06:41.915Z,19.00
2018-08-25T15:09:12.349Z,19.10
2018-08-25T15:11:40.521Z,19.30
2018-08-25T15:14:08.677Z,19.30
2018-08-25T15:16:36.993Z,19.30
2018-08-25T15:19:05.230Z,19.30
2018-08-25T15:21:33.687Z,19.60
2018-08-25T15:24:02.286Z,19.60
2018-08-25T15:26:30.579Z,19.50
2018-08-25T15:28:58.984Z,20.10
2018-08-25T15:31:27.399Z,20.10
2018-08-25T15:33:55.584Z,21.10
2018-08-25T15:43:47.624Z,19.40
2018-08-25T15:46:15.895Z,19.50
2018-08-25T15:48:44.291Z,19.50
2018-08-25T15:53:40.929Z,19.40
2018-08-25T15:56:09.118Z,19.40
2018-08-25T15:58:37.405Z,19.10
2018-08-25T16:03:33.484Z,20.00
2018-08-25T16:06:02.027Z,19.20
2018-08-25T16:08:30.245Z,19.10
2018-08-25T16:10:58.571Z,18.80
2018-08-25T16:13:26.818Z,18.60
2018-08-25T16:15:55.141Z,18.60
2018-08-25T16:18:23.440Z,18.40
2018-08-25T16:20:51.690Z,18.40
2018-08-25T16:23:20.072Z,18.20
2018-08-25T16:30:45.004Z,18.20
2018-08-25T16:33:13.408Z,18.20
2018-08-25T16:35:41.555Z,18.20
2018-08-25T16:38:09.720Z,18.20
2018-08-25T16:40:38.492Z,18.20
2018-08-25T16:43:06.806Z,18.20
2018-08-25T16:48:02.865Z,18.40
2018-08-25T16:50:31.038Z,20.20
2018-08-25T16:52:59.174Z,19.80
2018-08-25T16:55:28.084Z,19.90
2018-08-25T16:57:56.311Z,19.00
2018-08-25T17:00:24.768Z,18.40
2018-08-25T17:02:52.901Z,18.40
2018-08-25T17:05:21.087Z,18.20
2018-08-25T17:07:49.255Z,18.10
2018-08-25T17:10:17.447Z,18.40
2018-08-25T17:12:45.583Z,18.40
2018-08-25T17:15:14.073Z,20.00
2018-08-25T17:17:42.157Z,20.90
2018-08-25T17:20:10.462Z,21.70
2018-08-25T17:22:39.659Z,21.30
2018-08-25T17:25:07.899Z,21.00
2018-08-25T17:27:36.065Z,20.00
2018-08-25T17:30:07.473Z,20.00
2018-08-25T17:32:35.636Z,20.10
2018-08-25T17:35:04.096Z,20.40
2018-08-25T17:37:32.256Z,19.60
2018-08-25T17:40:00.412Z,19.00
2018-08-25T17:42:28.604Z,18.90
2018-08-25T17:47:24.702Z,18.50
2018-08-25T17:49:52.847Z,18.50
2018-08-25T17:52:21.021Z,18.30
2018-08-25T17:54:49.152Z,18.20
2018-08-25T17:57:17.463Z,17.90
2018-08-25T17:59:45.572Z,17.90
2018-08-25T18:02:13.838Z,17.70
2018-08-25T18:04:41.978Z,17.60
2018-08-25T18:07:10.236Z,17.20
2018-08-25T18:09:38.424Z,17.20
2018-08-25T18:12:06.628Z,16.70
2018-08-25T18:14:34.798Z,16.60
2018-08-25T18:17:03.329Z,16.60
2018-08-25T18:19:34.466Z,16.40
2018-08-25T18:22:09.270Z,16.40
2018-08-25T18:24:37.535Z,16.20
2018-08-25T18:27:05.691Z,16.20
2018-08-25T18:29:33.887Z,15.90
2018-08-25T18:32:02.154Z,15.90
2018-08-25T18:34:30.220Z,15.70
2018-08-25T18:36:58.543Z,15.60
2018-08-25T18:39:26.751Z,15.50
2018-08-25T18:41:54.936Z,15.50
2018-08-25T18:44:23.090Z,15.40
2018-08-25T18:46:51.230Z,15.30
2018-08-25T18:49:19.571Z,15.30
2018-08-25T18:51:47.914Z,15.30
2018-08-25T18:54:16.158Z,15.20
2018-08-25T18:56:44.315Z,15.20
2018-08-25T18:59:12.515Z,15.20
2018-08-25T19:01:40.723Z,15.20
2018-08-25T19:04:08.928Z,15.20
2018-08-25T19:06:37.134Z,15.20
2018-08-25T19:09:07.108Z,15.20
2018-08-25T19:11:35.309Z,15.10
2018-08-25T19:14:03.493Z,15.10
2018-08-25T19:16:31.675Z,15.10
2018-08-25T19:18:59.894Z,15.10
2018-08-25T19:21:28.128Z,15.10
2018-08-25T19:23:56.467Z,15.10
2018-08-25T19:26:24.682Z,15.10
2018-08-25T19:28:53.056Z,15.10
2018-08-25T19:31:21.410Z,15.20
2018-08-25T19:33:49.529Z,15.20
2018-08-25T19:36:17.790Z,15.20
2018-08-25T19:38:46.158Z,15.20
2018-08-25T19:41:14.575Z,15.30
2018-08-25T19:43:42.723Z,15.30
2018-08-25T19:46:10.887Z,15.30
2018-08-25T19:48:39.098Z,15.30
2018-08-25T19:51:07.330Z,15.30
2018-08-25T19:53:35.580Z,15.30
2018-08-25T19:56:03.742Z,15.30
2018-08-25T19:58:31.970Z,15.30
2018-08-25T20:01:00.218Z,15.30
2018-08-25T20:03:28.385Z,15.30
2018-08-25T20:05:56.555Z,15.30
2018-08-25T20:08:24.776Z,15.30
2018-08-25T20:10:53.031Z,15.20
2018-08-25T20:13:21.196Z,15.10
2018-08-25T20:15:49.352Z,15.10
2018-08-25T20:18:17.497Z,15.10
2018-08-25T20:20:45.808Z,15.10
2018-08-25T20:23:13.861Z,15.10
2018-08-25T20:25:42.024Z,15.10
2018-08-25T20:28:10.215Z,15.10
2018-08-25T20:30:38.377Z,15.10
2018-08-25T20:33:06.540Z,15.10
2018-08-25T20:35:34.787Z,15.10
2018-08-25T20:38:02.915Z,15.10
2018-08-25T20:40:31.135Z,15.10
2018-08-25T20:42:59.323Z,15.10
2018-08-25T20:45:27.622Z,15.10
2018-08-25T20:47:55.747Z,15.10
2018-08-25T20:50:23.949Z,15.00
2018-08-25T20:55:20.113Z,15.00
2018-08-25T20:57:48.312Z,14.90
2018-08-25T21:00:16.484Z,14.90
2018-08-25T21:02:44.705Z,14.90
2018-08-25T21:05:12.881Z,14.90
2018-08-25T21:07:41.032Z,14.90
2018-08-25T21:10:09.299Z,14.80
2018-08-25T21:12:37.557Z,14.80
2018-08-25T21:15:05.990Z,14.80
2018-08-25T21:17:34.123Z,14.80
2018-08-25T21:20:02.261Z,14.70
2018-08-25T21:22:30.483Z,14.70
2018-08-25T21:24:58.668Z,14.70
2018-08-25T21:27:26.832Z,14.70
2018-08-25T21:29:54.996Z,14.70
2018-08-25T21:32:23.223Z,14.70
2018-08-25T21:34:51.388Z,14.70
2018-08-25T21:37:19.686Z,14.70
2018-08-25T21:39:47.984Z,14.70
2018-08-25T21:42:16.267Z,14.70
2018-08-25T21:44:44.536Z,14.60
2018-08-25T21:47:12.719Z,14.60
2018-08-25T21:49:40.957Z,14.60
2018-08-25T21:52:09.198Z,14.60
2018-08-25T21:54:37.561Z,14.70
2018-08-25T21:57:05.828Z,14.60
2018-08-25T21:59:34.040Z,14.60
2018-08-25T22:02:02.355Z,14.60
2018-08-25T22:04:30.526Z,14.60
2018-08-25T22:06:58.888Z,14.60
2018-08-25T22:09:27.104Z,14.60
2018-08-25T22:11:55.551Z,14.60
2018-08-25T22:14:23.788Z,14.60
2018-08-25T22:16:52.136Z,14.50
2018-08-25T22:19:20.407Z,14.50
2018-08-25T22:21:48.652Z,14.50
2018-08-25T22:24:17.697Z,14.60
2018-08-25T22:26:45.968Z,14.50
2018-08-25T22:29:14.236Z,14.50
2018-08-25T22:31:42.406Z,14.50
2018-08-25T22:34:10.720Z,14.50
2018-08-25T22:36:38.992Z,14.40
2018-08-25T22:39:08.599Z,14.40
2018-08-25T22:41:36.795Z,14.40
2018-08-25T22:44:05.347Z,14.40
2018-08-25T22:46:33.724Z,14.40
2018-08-25T22:49:02.159Z,14.40
2018-08-25T22:51:30.642Z,14.40
2018-08-25T22:53:58.869Z,14.30
2018-08-25T22:56:27.180Z,14.20
2018-08-25T22:58:55.367Z,14.20
2018-08-25T23:01:23.704Z,14.20
2018-08-25T23:03:51.847Z,14.20
2018-08-25T23:06:20.016Z,14.20
2018-08-25T23:08:48.200Z,14.10
2018-08-25T23:11:16.493Z,14.10
2018-08-25T23:13:44.652Z,14.10
2018-08-25T23:16:12.826Z,14.10
2018-08-25T23:18:41.038Z,14.00
2018-08-25T23:21:09.194Z,14.10
2018-08-25T23:23:37.359Z,14.10
2018-08-25T23:26:05.930Z,14.00
2018-08-25T23:28:34.079Z,14.00
2018-08-25T23:31:02.264Z,14.00
2018-08-25T23:33:30.420Z,14.00
2018-08-25T23:35:58.571Z,14.00
2018-08-25T23:38:26.717Z,14.00
2018-08-25T23:40:54.884Z,14.00
2018-08-25T23:43:29.619Z,13.90
2018-08-25T23:45:57.796Z,13.90
2018-08-25T23:48:25.962Z,13.90
2018-08-25T23:50:54.137Z,13.80
2018-08-25T23:53:22.343Z,13.90
2018-08-25T23:55:50.501Z,13.80
2018-08-25T23:58:18.726Z,13.70
